Time;durP1;ratioP1;P1;durP2;ratioP2;P2;SDS_P1;SDS_P2;PMS_P1;PMS_P2;Temp;Humidity;BMP_temperature;BMP_pressure;BME280_temperature;BME280_humidity;BME280_pressure;Samples;Min_cycle;Max_cycle;Signal;HPM_P1;HPM_P2
2023/01/04 00:01:26;;;;;;;7.30;5.10;;;4.50;99.90;;;;;;5089272;28;20451;-74
2023/01/04 00:03:52;;;;;;;5.63;3.53;;;4.50;99.90;;;;;;5090440;28;20808;-74
2023/01/04 00:06:20;;;;;;;7.43;4.17;;;4.40;99.90;;;;;;5090027;28;20451;-73
2023/01/04 00:08:47;;;;;;;6.97;4.07;;;4.40;99.90;;;;;;5093207;28;20548;-73
2023/01/04 00:11:17;;;;;;;5.27;4.00;;;4.50;99.90;;;;;;5093299;28;20888;-73
2023/01/04 00:13:44;;;;;;;5.50;3.50;;;4.50;99.90;;;;;;5093916;28;20480;-74
2023/01/04 00:16:15;;;;;;;6.00;4.40;;;4.50;99.90;;;;;;5093523;28;20788;-73
2023/01/04 00:18:42;;;;;;;5.60;4.23;;;4.60;99.90;;;;;;5093937;28;20438;-75
2023/01/04 00:21:11;;;;;;;3.40;2.77;;;4.60;99.90;;;;;;5092902;28;20447;-74
2023/01/04 00:23:38;;;;;;;4.70;2.80;;;4.70;99.90;;;;;;5080767;28;20452;-74
2023/01/04 00:26:08;;;;;;;6.83;4.30;;;4.60;99.90;;;;;;5093310;28;20449;-74
2023/01/04 00:28:35;;;;;;;4.73;3.33;;;4.70;99.90;;;;;;5093969;28;20433;-74
2023/01/04 00:31:04;;;;;;;4.87;3.30;;;4.70;99.90;;;;;;5092858;28;20960;-72
2023/01/04 00:33:32;;;;;;;4.63;3.50;;;4.60;99.90;;;;;;5093908;28;20477;-74
2023/01/04 00:36:04;;;;;;;7.43;3.17;;;4.50;99.90;;;;;;5093394;28;20519;-74
2023/01/04 00:38:31;;;;;;;5.23;3.57;;;4.50;99.90;;;;;;5093557;28;20939;-74
2023/01/04 00:40:58;;;;;;;6.17;4.40;;;4.50;99.90;;;;;;5093001;28;20947;-74
2023/01/04 00:43:25;;;;;;;6.33;3.03;;;4.60;99.90;;;;;;5092750;28;20973;-74
2023/01/04 00:45:52;;;;;;;6.73;4.90;;;4.60;99.90;;;;;;5093518;28;21231;-74
2023/01/04 00:48:18;;;;;;;5.47;2.80;;;4.50;99.90;;;;;;5093161;28;20539;-74
2023/01/04 00:50:48;;;;;;;4.07;2.80;;;4.50;99.90;;;;;;5092821;28;20785;-74
2023/01/04 00:53:16;;;;;;;11.60;4.50;;;4.40;99.90;;;;;;5092803;28;20477;-74
2023/01/04 00:55:43;;;;;;;6.67;3.90;;;4.40;99.90;;;;;;5092896;28;20932;-74
2023/01/04 00:58:10;;;;;;;6.77;4.90;;;4.40;99.90;;;;;;5092981;28;20456;-74
2023/01/04 01:00:37;;;;;;;5.80;3.50;;;4.30;99.90;;;;;;5092533;28;20924;-74
2023/01/04 01:03:04;;;;;;;6.30;4.27;;;4.10;99.90;;;;;;5092652;28;20841;-73
2023/01/04 01:05:33;;;;;;;4.57;2.63;;;4.00;99.90;;;;;;5092672;28;20444;-74
2023/01/04 01:08:23;;;;;;;4.60;3.17;;;4.20;99.90;;;;;;5093274;28;20461;-74
2023/01/04 01:10:50;;;;;;;5.80;2.60;;;4.20;99.90;;;;;;5092539;28;20838;-74
2023/01/04 01:13:17;;;;;;;6.30;3.93;;;4.10;99.90;;;;;;5092071;28;20508;-74
2023/01/04 01:15:44;;;;;;;6.53;3.40;;;4.00;99.90;;;;;;5092770;28;20946;-74
2023/01/04 01:18:11;;;;;;;3.80;2.67;;;4.10;99.90;;;;;;5091789;28;20458;-74
2023/01/04 01:20:42;;;;;;;6.67;4.03;;;4.10;99.90;;;;;;5092416;28;20459;-74
2023/01/04 01:23:12;;;;;;;5.70;3.20;;;4.20;99.90;;;;;;5092348;28;20465;-74
2023/01/04 01:25:39;;;;;;;6.60;3.57;;;4.20;99.90;;;;;;5092892;28;20445;-74
2023/01/04 01:28:06;;;;;;;7.33;3.80;;;4.40;99.90;;;;;;5092198;28;20463;-73
2023/01/04 01:30:32;;;;;;;6.90;3.60;;;4.40;93.10;;;;;;5092099;28;20460;-74
2023/01/04 01:32:59;;;;;;;4.67;2.70;;;4.20;99.90;;;;;;5092838;28;20452;-74
2023/01/04 01:35:26;;;;;;;3.30;2.93;;;4.30;99.90;;;;;;5091550;28;20949;-74
2023/01/04 01:37:53;;;;;;;5.20;4.13;;;4.40;99.90;;;;;;5092124;28;20547;-74
2023/01/04 01:40:21;;;;;;;3.03;2.70;;;4.40;99.90;;;;;;5091129;28;20954;-74
2023/01/04 01:42:48;;;;;;;4.10;2.83;;;4.30;99.90;;;;;;5092193;28;20480;-74
2023/01/04 01:45:27;;;;;;;6.27;3.87;;;4.50;99.90;;;;;;5091979;28;20448;-74
2023/01/04 01:48:01;;;;;;;4.30;2.97;;;4.50;99.40;;;;;;5079312;28;20466;-74
2023/01/04 01:50:31;;;;;;;4.37;2.53;;;4.50;92.70;;;;;;5091757;28;20449;-74
2023/01/04 01:53:01;;;;;;;5.20;4.23;;;4.30;91.70;;;;;;5092471;28;20803;-74
2023/01/04 01:55:31;;;;;;;7.63;4.23;;;4.30;99.90;;;;;;5092272;28;20445;-74
2023/01/04 01:57:58;;;;;;;3.07;2.27;;;4.10;99.90;;;;;;5092227;28;20448;-75
2023/01/04 02:00:25;;;;;;;3.87;2.93;;;4.10;99.90;;;;;;5091139;28;20445;-75
2023/01/04 02:03:05;;;;;;;6.43;3.33;;;4.10;99.90;;;;;;5092062;28;20456;-74
2023/01/04 02:05:33;;;;;;;4.80;3.20;;;4.10;99.90;;;;;;5091646;28;20921;-74
2023/01/04 02:08:02;;;;;;;3.23;2.30;;;4.00;99.90;;;;;;5092000;28;20452;-74
2023/01/04 02:10:31;;;;;;;4.70;3.30;;;3.90;99.90;;;;;;5091528;28;20456;-74
2023/01/04 02:13:00;;;;;;;2.97;2.23;;;4.00;99.90;;;;;;5091907;28;20452;-74
2023/01/04 02:15:30;;;;;;;5.40;2.63;;;3.80;99.90;;;;;;5078220;28;20874;-74
2023/01/04 02:18:06;;;;;;;3.93;2.50;;;3.70;99.90;;;;;;5091589;28;20456;-74
2023/01/04 02:20:50;;;;;;;3.43;2.50;;;3.60;99.90;;;;;;5090978;28;20448;-74
2023/01/04 02:23:47;;;;;;;6.43;2.57;;;3.70;99.90;;;;;;5089382;28;20575;-74
2023/01/04 02:26:54;;;;;;;3.87;3.30;;;3.80;99.90;;;;;;5091117;28;20463;-74
2023/01/04 02:29:54;;;;;;;3.37;2.20;;;3.90;99.90;;;;;;5090759;28;20461;-74
2023/01/04 02:32:28;;;;;;;3.80;3.00;;;4.10;99.90;;;;;;5091047;28;20783;-74
2023/01/04 02:35:04;;;;;;;4.43;2.77;;;4.00;99.90;;;;;;5078236;28;20478;-74
2023/01/04 02:37:40;;;;;;;3.10;2.20;;;4.00;99.90;;;;;;5091284;28;20441;-74
2023/01/04 02:40:15;;;;;;;2.80;2.07;;;3.90;99.90;;;;;;5090485;28;20444;-74
2023/01/04 02:45:40;;;;;;;3.43;2.17;;;3.70;99.90;;;;;;5059539;28;20438;-74
2023/01/04 02:50:56;;;;;;;2.87;2.23;;;4.00;99.90;;;;;;5090616;28;20442;-74
2023/01/04 02:53:27;;;;;;;3.10;2.60;;;4.10;99.90;;;;;;5090624;28;20451;-74
2023/01/04 02:56:05;;;;;;;5.47;3.53;;;4.20;99.90;;;;;;5091137;28;20455;-74
2023/01/04 02:59:03;;;;;;;6.13;2.80;;;4.20;99.90;;;;;;5091273;28;20479;-74
2023/01/04 03:07:39;;;;;;;3.83;1.80;;;4.40;99.90;;;;;;5079330;28;20419;-74
2023/01/04 03:10:10;;;;;;;4.53;2.40;;;4.30;99.90;;;;;;5089830;28;20948;-74
2023/01/04 03:12:43;;;;;;;4.00;2.47;;;4.40;99.90;;;;;;5090987;28;20452;-74
2023/01/04 03:15:14;;;;;;;5.17;2.67;;;4.50;99.90;;;;;;5090448;28;20471;-74
2023/01/04 03:17:46;;;;;;;5.00;2.83;;;4.40;99.00;;;;;;5091113;28;20812;-74
2023/01/04 03:20:18;;;;;;;3.03;2.70;;;4.40;99.90;;;;;;5089823;28;20436;-74
2023/01/04 03:36:55;;;;;;;5.97;2.20;;;4.40;91.00;;;;;;5090559;28;20825;-74
2023/01/04 03:50:56;;;;;;;4.83;1.97;;;4.50;59.30;;;;;;5093801;28;20420;-74
2023/01/04 03:53:26;;;;;;;3.63;2.23;;;4.60;47.20;;;;;;5093730;28;20931;-74
2023/01/04 03:55:55;;;;;;;3.20;1.53;;;4.60;44.30;;;;;;5094392;28;20446;-74
2023/01/04 03:58:22;;;;;;;3.73;2.30;;;4.70;45.00;;;;;;5093875;28;20771;-74
2023/01/04 04:00:49;;;;;;;3.17;2.30;;;4.90;10.00;;;;;;5080274;28;20452;-74
2023/01/04 04:03:16;;;;;;;3.50;2.50;;;5.00;1.00;;;;;;5093798;28;20452;-74
2023/01/04 04:08:30;;;;;;;2.70;1.43;;;5.20;1.00;;;;;;5094291;28;20432;-74
2023/01/04 04:11:28;;;;;;;3.80;2.33;;;5.30;1.00;;;;;;5093561;28;20446;-74
2023/01/04 04:13:46;;;;;;;4.43;2.73;;;5.40;1.00;;;;;;5093821;28;20478;-75
2023/01/04 04:16:13;;;;;;;3.90;1.77;;;5.30;1.00;;;;;;5093268;28;20956;-74
2023/01/04 04:18:40;;;;;;;3.80;1.60;;;5.30;1.00;;;;;;5093914;28;20789;-74
2023/01/04 04:21:07;;;;;;;4.07;2.47;;;5.30;1.00;;;;;;5092891;28;20456;-74
2023/01/04 04:23:35;;;;;;;2.77;1.27;;;5.30;1.00;;;;;;5094116;28;20450;-74
2023/01/04 04:26:02;;;;;;;2.23;1.90;;;5.40;1.00;;;;;;5093690;28;20451;-72
2023/01/04 04:28:29;;;;;;;1.73;0.93;;;5.50;1.00;;;;;;5093654;28;20536;-74
2023/01/04 04:30:56;;;;;;;2.50;1.43;;;5.50;1.00;;;;;;5093269;28;20462;-74
2023/01/04 04:33:22;;;;;;;3.60;1.40;;;5.60;1.00;;;;;;5092943;28;20965;-74
2023/01/04 04:35:51;;;;;;;2.50;1.60;;;5.50;1.00;;;;;;5093023;28;21000;-74
2023/01/04 04:38:18;;;;;;;4.00;1.70;;;5.50;1.00;;;;;;5093045;28;20512;-74
2023/01/04 04:43:33;;;;;;;1.60;1.23;;;5.60;1.00;;;;;;5066900;28;20477;-74
2023/01/04 04:46:02;;;;;;;1.97;1.10;;;5.60;1.00;;;;;;5093529;28;20450;-75
2023/01/04 04:48:29;;;;;;;4.90;1.67;;;5.60;1.00;;;;;;5093669;28;20449;-74
2023/01/04 04:50:55;;;;;;;1.40;1.10;;;5.60;1.00;;;;;;5092708;28;20452;-75
2023/01/04 04:53:22;;;;;;;3.87;1.37;;;5.60;1.00;;;;;;5092152;28;21018;-74
2023/01/04 04:55:52;;;;;;;2.87;1.83;;;5.60;1.00;;;;;;5093125;28;20483;-74
2023/01/04 04:58:19;;;;;;;2.87;1.47;;;5.60;1.00;;;;;;5092392;28;20934;-74
2023/01/04 05:00:46;;;;;;;2.00;1.73;;;5.80;1.00;;;;;;5092193;28;20448;-74
2023/01/04 05:03:13;;;;;;;1.73;1.33;;;5.90;1.00;;;;;;5092522;28;20478;-74
2023/01/04 05:05:40;;;;;;;1.67;1.57;;;5.90;1.00;;;;;;5079397;28;20445;-74
2023/01/04 05:08:06;;;;;;;2.10;1.60;;;6.00;1.00;;;;;;5092377;28;20521;-74
2023/01/04 05:10:33;;;;;;;2.17;1.00;;;6.00;1.00;;;;;;5078911;28;20463;-74
2023/01/04 05:13:01;;;;;;;1.93;1.30;;;6.00;1.00;;;;;;5093018;28;20459;-74
2023/01/04 05:15:30;;;;;;;1.87;1.60;;;6.00;1.00;;;;;;5092707;28;20476;-75
2023/01/04 05:17:57;;;;;;;1.47;1.00;;;6.10;1.00;;;;;;5092986;28;20453;-74
2023/01/04 05:20:24;;;;;;;3.10;1.50;;;6.10;1.00;;;;;;5091763;28;20455;-74
2023/01/04 05:22:51;;;;;;;1.70;1.40;;;6.10;1.00;;;;;;5092504;28;20940;-75
2023/01/04 05:25:18;;;;;;;2.30;1.30;;;6.10;1.00;;;;;;5092155;28;20451;-75
2023/01/04 05:27:45;;;;;;;2.77;1.43;;;6.10;1.00;;;;;;5092612;28;20456;-74
2023/01/04 05:33:00;;;;;;;1.50;1.37;;;6.20;1.00;;;;;;5092505;28;20419;-74
2023/01/04 05:35:27;;;;;;;3.20;1.57;;;6.30;1.00;;;;;;5092054;28;20487;-74
2023/01/04 05:37:54;;;;;;;3.07;1.23;;;6.30;1.00;;;;;;5092088;28;20458;-74
2023/01/04 05:40:21;;;;;;;1.77;1.33;;;6.30;99.90;;;;;;5091194;28;20455;-74
2023/01/04 05:42:49;;;;;;;1.50;1.40;;;6.30;99.90;;;;;;5091825;28;20489;-74
2023/01/04 05:45:18;;;;;;;3.60;1.50;;;6.30;1.00;;;;;;5091848;28;20449;-74
2023/01/04 05:47:45;;;;;;;1.30;1.00;;;6.50;99.90;;;;;;5091821;28;20479;-74
2023/01/04 05:50:11;;;;;;;1.70;1.40;;;6.50;99.90;;;;;;5091043;28;20894;-74
2023/01/04 05:52:38;;;;;;;1.80;1.20;;;6.50;99.90;;;;;;5092254;28;20452;-74
2023/01/04 05:55:06;;;;;;;1.67;1.00;;;6.50;99.90;;;;;;5091554;28;20490;-74
2023/01/04 05:57:32;;;;;;;4.77;1.83;;;6.60;99.90;;;;;;5092165;28;20456;-74
2023/01/04 05:59:59;;;;;;;0.93;0.83;;;6.60;99.90;;;;;;5091602;28;20538;-75
2023/01/04 06:02:29;;;;;;;3.23;1.87;;;6.60;99.90;;;;;;5091047;28;20967;-75
2023/01/04 06:04:56;;;;;;;2.50;1.50;;;6.80;99.90;;;;;;5091057;28;20468;-75
2023/01/04 06:07:23;;;;;;;2.57;1.30;;;6.80;99.90;;;;;;5077770;28;20463;-75
2023/01/04 06:09:50;;;;;;;2.20;1.10;;;6.90;99.90;;;;;;5091116;28;20951;-74
2023/01/04 06:12:17;;;;;;;1.63;0.80;;;6.90;99.90;;;;;;5091202;28;20460;-74
2023/01/04 06:14:44;;;;;;;2.00;1.23;;;6.90;99.90;;;;;;5091602;28;20484;-74
2023/01/04 06:17:11;;;;;;;1.47;1.00;;;7.00;99.90;;;;;;5091165;28;20460;-74
2023/01/04 06:19:39;;;;;;;1.30;1.10;;;7.00;99.90;;;;;;5090918;28;20445;-74
2023/01/04 06:22:06;;;;;;;2.00;1.80;;;7.00;99.90;;;;;;5091061;28;20459;-74
2023/01/04 06:24:33;;;;;;;1.43;1.03;;;7.10;99.90;;;;;;5091623;28;20460;-74
2023/01/04 06:27:01;;;;;;;3.07;1.87;;;7.10;99.90;;;;;;5091851;28;20465;-74
2023/01/04 06:29:27;;;;;;;3.13;1.27;;;7.00;99.90;;;;;;5090967;28;20445;-74
2023/01/04 06:31:54;;;;;;;2.40;1.50;;;7.10;99.90;;;;;;5091456;28;20594;-74
2023/01/04 06:34:21;;;;;;;2.13;1.00;;;7.10;99.90;;;;;;5090677;28;20452;-74
2023/01/04 06:36:49;;;;;;;1.20;0.93;;;7.10;96.10;;;;;;5091414;28;20458;-74
2023/01/04 06:39:16;;;;;;;2.20;1.20;;;7.20;65.50;;;;;;5090507;28;20446;-74
2023/01/04 06:41:43;;;;;;;2.40;1.40;;;7.20;31.40;;;;;;5091451;28;20456;-74
2023/01/04 06:44:10;;;;;;;2.17;1.30;;;7.20;1.00;;;;;;5090741;28;20488;-75
2023/01/04 06:46:36;;;;;;;3.33;1.27;;;7.20;1.00;;;;;;5091001;28;20977;-74
2023/01/04 06:49:03;;;;;;;1.47;0.93;;;7.30;1.00;;;;;;5090486;28;20550;-74
2023/01/04 06:51:30;;;;;;;2.17;1.17;;;7.20;1.00;;;;;;5091284;28;20441;-74
2023/01/04 06:53:58;;;;;;;1.50;1.30;;;7.20;1.00;;;;;;5090925;28;20471;-75
2023/01/04 06:56:25;;;;;;;1.10;0.87;;;7.20;1.00;;;;;;5090693;28;20485;-75
2023/01/04 06:58:52;;;;;;;2.20;1.40;;;7.20;1.00;;;;;;5090387;28;20456;-75
2023/01/04 07:01:19;;;;;;;2.07;0.97;;;7.20;1.00;;;;;;5090811;28;20453;-74
2023/01/04 07:03:45;;;;;;;1.23;0.90;;;7.30;1.00;;;;;;5090790;28;20450;-75
2023/01/04 07:06:12;;;;;;;2.60;1.00;;;7.30;1.00;;;;;;5090298;28;20921;-74
2023/01/04 07:08:39;;;;;;;1.73;1.10;;;7.30;1.00;;;;;;5090791;28;20452;-74
2023/01/04 07:11:07;;;;;;;1.00;0.73;;;7.30;1.00;;;;;;5090186;28;20451;-75
2023/01/04 07:13:34;;;;;;;1.80;1.20;;;7.30;1.00;;;;;;5090836;28;20452;-74
2023/01/04 07:16:01;;;;;;;2.73;1.27;;;7.40;1.00;;;;;;5091391;28;21044;-75
2023/01/04 07:18:28;;;;;;;2.07;1.30;;;7.40;1.00;;;;;;5095179;28;20453;-75
2023/01/04 07:20:55;;;;;;;1.20;1.00;;;7.40;1.00;;;;;;5094645;28;20546;-75
2023/01/04 07:23:21;;;;;;;1.63;1.10;;;7.40;1.00;;;;;;5094451;28;20456;-75
2023/01/04 07:25:48;;;;;;;1.00;0.80;;;7.50;99.90;;;;;;5095177;28;20454;-75
2023/01/04 07:29:13;;;;;;;1.70;1.03;;;7.50;99.90;;;;;;5094234;28;20449;-75
2023/01/04 07:31:07;;;;;;;1.47;1.03;;;7.50;99.90;;;;;;5093870;28;20501;-74
2023/01/04 07:33:34;;;;;;;0.80;0.70;;;7.60;99.90;;;;;;5094934;28;20449;-74
2023/01/04 07:36:06;;;;;;;4.03;0.60;;;7.50;99.90;;;;;;5094766;28;20519;-75
2023/01/04 07:38:33;;;;;;;1.10;0.80;;;7.50;99.90;;;;;;5095023;28;20456;-74
2023/01/04 07:41:00;;;;;;;1.40;0.97;;;7.60;1.00;;;;;;5094788;28;20529;-75
2023/01/04 07:43:29;;;;;;;0.87;0.60;;;7.50;1.00;;;;;;5094827;28;20578;-75
2023/01/04 07:45:56;;;;;;;2.00;1.40;;;7.40;1.00;;;;;;5094567;28;20543;-75
2023/01/04 07:48:23;;;;;;;1.10;0.67;;;7.40;99.90;;;;;;5094149;28;20532;-75
2023/01/04 07:50:50;;;;;;;1.20;0.60;;;7.30;99.90;;;;;;5093623;28;20458;-75
2023/01/04 07:53:17;;;;;;;1.40;0.70;;;7.30;99.90;;;;;;5093995;28;20539;-75
2023/01/04 07:55:44;;;;;;;1.20;0.80;;;7.20;99.90;;;;;;5094043;28;20841;-74
2023/01/04 07:58:11;;;;;;;1.50;1.03;;;7.20;1.00;;;;;;5093846;28;20451;-75
2023/01/04 08:00:39;;;;;;;1.10;0.90;;;7.20;1.00;;;;;;5093899;28;20464;-75
2023/01/04 08:03:06;;;;;;;0.83;0.57;;;7.20;1.00;;;;;;5093705;28;20535;-75
2023/01/04 08:05:34;;;;;;;1.70;0.80;;;7.20;1.00;;;;;;5093725;28;20966;-75
2023/01/04 08:08:01;;;;;;;1.20;0.60;;;7.20;1.00;;;;;;5094547;28;20460;-75
2023/01/04 08:10:27;;;;;;;1.40;0.90;;;7.10;1.00;;;;;;5094139;28;20484;-75
2023/01/04 08:12:54;;;;;;;1.00;0.57;;;7.10;1.00;;;;;;5094259;28;20468;-75
2023/01/04 08:15:21;;;;;;;0.70;0.60;;;7.10;1.00;;;;;;5093392;28;20483;-75
2023/01/04 08:17:49;;;;;;;0.80;0.60;;;7.20;1.00;;;;;;5094226;28;20450;-75
2023/01/04 08:20:16;;;;;;;1.00;0.60;;;7.20;1.00;;;;;;5092993;28;20500;-75
2023/01/04 08:22:43;;;;;;;1.67;1.37;;;7.20;1.00;;;;;;5093547;28;20492;-75
2023/01/04 08:25:10;;;;;;;0.80;0.60;;;7.20;1.00;;;;;;5093428;28;20455;-75
2023/01/04 08:27:37;;;;;;;1.30;0.73;;;7.20;1.00;;;;;;5093439;28;20538;-75
2023/01/04 08:30:05;;;;;;;0.93;0.70;;;7.20;1.00;;;;;;5092418;28;20449;-75
2023/01/04 08:32:32;;;;;;;1.20;1.00;;;7.20;1.00;;;;;;5093823;28;20453;-76
2023/01/04 08:35:00;;;;;;;1.20;0.80;;;7.20;1.00;;;;;;5093951;28;20456;-76
2023/01/04 08:37:27;;;;;;;1.60;0.80;;;7.30;1.00;;;;;;5092708;28;20967;-76
2023/01/04 08:39:54;;;;;;;0.77;0.60;;;7.20;1.00;;;;;;5093215;28;20544;-75
2023/01/04 08:42:20;;;;;;;0.90;0.53;;;7.30;1.00;;;;;;5092713;28;20452;-76
2023/01/04 08:44:47;;;;;;;3.37;0.90;;;7.30;1.00;;;;;;5093720;28;20484;-76
2023/01/04 08:47:14;;;;;;;1.20;0.80;;;7.40;1.00;;;;;;5092701;28;20449;-75
2023/01/04 08:49:41;;;;;;;1.37;0.80;;;7.30;1.00;;;;;;5093014;28;20452;-75
2023/01/04 08:52:10;;;;;;;0.80;0.50;;;7.40;1.00;;;;;;5092423;28;20475;-75
2023/01/04 08:54:37;;;;;;;0.90;0.60;;;7.40;99.90;;;;;;5093470;28;20868;-75
2023/01/04 08:57:04;;;;;;;1.90;1.10;;;7.40;99.90;;;;;;5092564;28;20493;-75
2023/01/04 08:59:31;;;;;;;0.80;0.73;;;7.50;99.90;;;;;;5092697;28;20452;-76
2023/01/04 09:01:57;;;;;;;1.10;0.80;;;7.50;99.90;;;;;;5093227;28;20457;-76
2023/01/04 09:04:24;;;;;;;2.23;0.70;;;7.50;99.90;;;;;;5092664;28;20463;-75
2023/01/04 09:06:51;;;;;;;0.80;0.50;;;7.60;99.90;;;;;;5092694;28;21089;-76
2023/01/04 09:09:19;;;;;;;1.60;0.97;;;7.60;1.00;;;;;;5092120;28;20449;-75
2023/01/04 09:11:46;;;;;;;1.07;0.73;;;7.60;1.00;;;;;;5092631;28;20992;-75
2023/01/04 09:14:13;;;;;;;0.80;0.60;;;7.60;1.00;;;;;;5092661;28;20495;-75
2023/01/04 09:16:40;;;;;;;1.20;0.80;;;7.70;1.00;;;;;;5092801;28;20498;-76
2023/01/04 09:19:07;;;;;;;1.60;0.90;;;7.80;99.90;;;;;;5092035;28;20515;-75
2023/01/04 09:21:34;;;;;;;1.00;0.63;;;7.80;1.00;;;;;;5092802;28;20468;-75
2023/01/04 09:24:02;;;;;;;1.83;0.90;;;7.80;99.90;;;;;;5092945;28;20445;-75
2023/01/04 09:26:30;;;;;;;3.00;0.90;;;7.80;99.90;;;;;;5092767;28;20453;-75
2023/01/04 09:28:57;;;;;;;2.10;1.07;;;7.90;99.90;;;;;;5092564;28;20454;-75
2023/01/04 09:31:25;;;;;;;1.40;1.00;;;7.90;18.80;;;;;;5092013;28;20449;-75
2023/01/04 09:33:53;;;;;;;1.27;1.07;;;8.00;99.90;;;;;;5092706;28;20447;-75
2023/01/04 09:36:20;;;;;;;1.73;0.60;;;8.10;1.00;;;;;;5091604;28;20489;-75
2023/01/04 09:38:48;;;;;;;0.90;0.70;;;8.10;1.00;;;;;;5092156;28;20442;-76
2023/01/04 09:41:24;;;;;;;1.10;0.60;;;8.10;1.00;;;;;;5091520;28;20503;-75
2023/01/04 09:43:54;;;;;;;0.90;0.60;;;8.20;1.00;;;;;;5092283;28;20489;-75
2023/01/04 09:46:34;;;;;;;1.10;1.00;;;8.20;1.00;;;;;;5091942;28;20456;-75
2023/01/04 09:49:14;;;;;;;1.10;0.60;;;8.30;1.00;;;;;;5091931;28;20449;-76
2023/01/04 09:51:45;;;;;;;1.20;0.80;;;8.30;99.90;;;;;;5092309;28;20440;-75
2023/01/04 09:54:15;;;;;;;4.10;0.90;;;8.50;1.00;;;;;;5091637;28;20461;-75
2023/01/04 09:56:47;;;;;;;0.80;0.60;;;8.50;1.00;;;;;;5093949;28;20483;-75
2023/01/04 09:59:20;;;;;;;0.83;0.70;;;8.60;99.90;;;;;;5083483;28;20459;-75
2023/01/04 10:01:52;;;;;;;7.90;1.17;;;8.60;1.00;;;;;;5098603;28;20928;-75
2023/01/04 10:04:25;;;;;;;0.80;0.50;;;8.60;1.00;;;;;;5101549;28;20622;-75
2023/01/04 10:06:53;;;;;;;2.13;0.73;;;8.60;99.90;;;;;;5104212;28;20709;-74
2023/01/04 10:09:20;;;;;;;0.80;0.60;;;8.60;1.00;;;;;;5106945;28;20468;-76
2023/01/04 10:12:06;;;;;;;1.83;0.60;;;8.60;1.00;;;;;;5113329;28;20455;-75
2023/01/04 10:14:50;;;;;;;1.03;0.80;;;8.60;1.00;;;;;;5109997;28;20491;-73
2023/01/04 10:17:34;;;;;;;3.40;0.80;;;8.60;93.40;;;;;;5083048;28;20479;-75
2023/01/04 10:20:12;;;;;;;1.30;0.80;;;8.70;1.00;;;;;;5094003;28;20452;-76
2023/01/04 10:22:45;;;;;;;1.63;0.70;;;8.70;1.00;;;;;;5094230;28;20443;-75
2023/01/04 10:25:23;;;;;;;1.73;1.13;;;8.70;1.00;;;;;;5079556;28;20453;-75
2023/01/04 10:28:03;;;;;;;1.20;0.70;;;8.70;1.00;;;;;;5091719;28;20447;-75
2023/01/04 10:30:38;;;;;;;0.90;0.60;;;8.70;1.00;;;;;;5091359;28;21012;-75
2023/01/04 10:33:12;;;;;;;1.00;0.80;;;8.70;1.00;;;;;;5090497;28;20453;-75
2023/01/04 10:35:42;;;;;;;1.00;0.90;;;8.80;1.00;;;;;;5088490;28;20463;-75
2023/01/04 10:38:16;;;;;;;0.70;0.50;;;8.90;1.00;;;;;;5089357;28;20452;-75
2023/01/04 10:40:46;;;;;;;1.30;0.63;;;8.90;1.00;;;;;;5090567;28;20444;-74
2023/01/04 10:43:23;;;;;;;9.97;0.70;;;8.90;1.00;;;;;;5090359;28;20486;-73
2023/01/04 10:45:57;;;;;;;2.50;0.80;;;9.00;1.00;;;;;;5090778;28;20469;-75
2023/01/04 10:48:32;;;;;;;1.10;0.70;;;9.10;1.00;;;;;;5089891;28;20451;-75
2023/01/04 10:51:01;;;;;;;1.40;0.90;;;9.10;1.00;;;;;;5090380;28;20444;-75
2023/01/04 10:53:33;;;;;;;1.03;0.60;;;9.10;99.90;;;;;;5090405;28;20452;-75
2023/01/04 10:56:05;;;;;;;1.47;0.60;;;9.20;99.90;;;;;;5077667;28;20487;-75
2023/01/04 10:58:37;;;;;;;1.30;0.80;;;9.20;1.00;;;;;;5090425;28;20452;-75
2023/01/04 11:01:12;;;;;;;0.90;0.57;;;9.20;99.90;;;;;;5090354;28;20456;-74
2023/01/04 11:03:46;;;;;;;1.93;0.50;;;9.30;99.90;;;;;;5090539;28;20444;-75
2023/01/04 11:06:17;;;;;;;1.00;0.67;;;9.30;99.90;;;;;;5089908;28;20809;-75
2023/01/04 11:08:47;;;;;;;0.90;0.60;;;9.30;99.90;;;;;;5090300;28;20444;-74
2023/01/04 11:11:20;;;;;;;5.30;1.27;;;9.40;99.90;;;;;;5090349;28;20448;-75
2023/01/04 11:13:47;;;;;;;1.17;0.60;;;9.40;99.90;;;;;;5077094;28;20452;-73
2023/01/04 11:16:15;;;;;;;0.70;0.50;;;9.40;99.90;;;;;;5089944;28;20995;-74
2023/01/04 11:18:44;;;;;;;1.07;0.53;;;9.40;99.90;;;;;;5089771;28;21065;-75
2023/01/04 11:21:14;;;;;;;0.70;0.47;;;9.40;99.90;;;;;;5089939;28;20447;-74
2023/01/04 11:23:41;;;;;;;0.73;0.53;;;9.50;99.90;;;;;;5090724;28;20936;-75
2023/01/04 11:26:12;;;;;;;0.90;0.63;;;9.50;99.90;;;;;;5089775;28;20449;-74
2023/01/04 11:28:44;;;;;;;0.93;0.67;;;9.50;99.90;;;;;;5090216;28;20451;-75
2023/01/04 11:31:21;;;;;;;1.23;0.70;;;9.50;99.90;;;;;;5089760;28;20455;-75
2023/01/04 11:33:53;;;;;;;1.33;0.67;;;9.60;99.90;;;;;;5088777;28;20956;-74
2023/01/04 11:36:34;;;;;;;2.70;0.60;;;9.60;99.90;;;;;;5089369;28;20475;-75
2023/01/04 11:39:02;;;;;;;1.50;0.77;;;9.60;99.90;;;;;;5089776;28;20527;-75
2023/01/04 11:41:29;;;;;;;1.73;0.80;;;9.60;99.90;;;;;;5090207;28;20455;-74
2023/01/04 11:43:58;;;;;;;1.20;0.67;;;9.70;99.90;;;;;;5089533;28;20481;-76
2023/01/04 11:46:27;;;;;;;2.43;0.83;;;9.70;99.90;;;;;;5090037;28;20473;-74
2023/01/04 11:48:55;;;;;;;0.83;0.70;;;9.70;99.90;;;;;;5089675;28;20453;-75
2023/01/04 11:51:38;;;;;;;2.07;0.83;;;9.70;99.90;;;;;;5089889;28;20475;-74
2023/01/04 11:54:06;;;;;;;0.80;0.43;;;9.80;99.90;;;;;;5089652;28;20450;-75
2023/01/04 11:56:35;;;;;;;1.33;0.70;;;9.80;99.90;;;;;;5089913;28;20991;-74
2023/01/04 11:59:11;;;;;;;0.80;0.57;;;9.80;99.90;;;;;;5089751;28;20445;-72
2023/01/04 12:01:42;;;;;;;0.70;0.57;;;9.80;99.90;;;;;;5090005;28;20920;-75
2023/01/04 12:04:15;;;;;;;2.03;1.17;;;9.90;99.90;;;;;;5078380;28;20936;-75
2023/01/04 12:06:48;;;;;;;2.67;0.80;;;9.90;99.90;;;;;;5093467;28;20962;-75
2023/01/04 12:09:16;;;;;;;1.47;1.03;;;9.90;99.90;;;;;;5092869;28;20448;-74
2023/01/04 12:11:48;;;;;;;4.13;0.80;;;9.90;99.90;;;;;;5093685;28;20539;-77
2023/01/04 12:14:23;;;;;;;1.00;0.50;;;9.90;99.90;;;;;;5092964;28;20543;-75
2023/01/04 12:16:57;;;;;;;1.30;0.80;;;10.00;99.90;;;;;;5093007;28;20483;-74
2023/01/04 12:19:24;;;;;;;1.10;0.67;;;10.00;99.90;;;;;;5092908;28;20449;-75
2023/01/04 12:21:53;;;;;;;0.80;0.60;;;10.00;99.90;;;;;;5093116;28;20441;-74
2023/01/04 12:24:22;;;;;;;0.80;0.50;;;10.00;99.90;;;;;;5092931;28;20458;-74
2023/01/04 12:26:50;;;;;;;2.13;0.67;;;10.10;99.90;;;;;;5087962;28;20451;-75
2023/01/04 12:29:53;;;;;;;0.90;0.57;;;10.10;99.90;;;;;;5098301;28;20480;-75
2023/01/04 12:32:44;;;;;;;0.80;0.70;;;10.10;99.90;;;;;;5092831;28;20461;-75
2023/01/04 12:36:01;;;;;;;2.50;1.10;;;10.10;99.90;;;;;;5082376;28;20843;-74
2023/01/04 12:39:00;;;;;;;1.50;0.70;;;10.10;99.90;;;;;;5083057;28;20449;-73
2023/01/04 12:42:14;;;;;;;0.90;0.77;;;10.20;99.90;;;;;;5086814;28;20456;-73
2023/01/04 12:45:21;;;;;;;2.27;1.17;;;10.30;99.90;;;;;;5110518;28;20508;-75
2023/01/04 12:51:20;;;;;;;0.93;0.67;;;10.40;99.90;;;;;;5104871;28;20425;-77
2023/01/04 12:53:55;;;;;;;2.20;0.60;;;10.40;99.90;;;;;;5095912;28;20452;-74
2023/01/04 12:56:22;;;;;;;4.00;1.20;;;10.40;99.90;;;;;;5092873;28;20703;-76
2023/01/04 12:59:10;;;;;;;1.57;1.47;;;10.50;99.90;;;;;;5092738;28;20459;-76
2023/01/04 13:01:38;;;;;;;4.17;3.40;;;10.50;99.90;;;;;;5092624;28;21009;-74
2023/01/04 13:04:28;;;;;;;1.13;1.03;;;10.50;99.90;;;;;;5092195;28;21032;-75
2023/01/04 13:07:02;;;;;;;1.13;0.90;;;10.50;99.90;;;;;;5092209;28;20449;-75
2023/01/04 13:09:33;;;;;;;2.67;1.73;;;10.50;99.90;;;;;;5091893;28;20437;-75
2023/01/04 13:12:11;;;;;;;1.20;0.73;;;10.50;99.90;;;;;;5092388;28;20464;-74
2023/01/04 13:14:43;;;;;;;0.80;0.60;;;10.60;99.90;;;;;;5092177;28;20448;-75
2023/01/04 13:17:19;;;;;;;1.00;0.70;;;10.60;99.90;;;;;;5078368;28;20486;-76
2023/01/04 13:19:48;;;;;;;0.70;0.50;;;10.60;99.90;;;;;;5092082;28;20446;-75
2023/01/04 13:22:21;;;;;;;0.83;0.50;;;10.60;1.00;;;;;;5091607;28;20452;-76
2023/01/04 13:24:50;;;;;;;0.77;0.63;;;10.60;99.90;;;;;;5091999;28;20458;-76
2023/01/04 13:27:19;;;;;;;0.70;0.60;;;10.60;99.90;;;;;;5091813;28;20447;-76
2023/01/04 13:29:47;;;;;;;0.70;0.60;;;10.70;99.90;;;;;;5091465;28;20469;-75
2023/01/04 13:32:19;;;;;;;1.13;0.80;;;10.70;99.90;;;;;;5091517;28;20447;-75
2023/01/04 13:34:51;;;;;;;2.43;0.70;;;10.70;1.00;;;;;;5092240;28;20444;-75
2023/01/04 13:37:30;;;;;;;2.53;0.70;;;10.70;1.00;;;;;;5091465;28;20583;-75
2023/01/04 13:40:21;;;;;;;0.87;0.67;;;10.70;1.00;;;;;;5091559;28;20465;-75
2023/01/04 13:42:49;;;;;;;1.37;0.60;;;10.70;1.00;;;;;;5091536;28;20477;-74
2023/01/04 13:45:55;;;;;;;1.00;0.80;;;10.70;1.00;;;;;;5091682;28;20467;-74
2023/01/04 13:48:24;;;;;;;2.40;0.87;;;10.80;1.00;;;;;;5075113;28;20463;-74
2023/01/04 13:51:04;;;;;;;0.73;0.67;;;10.80;99.90;;;;;;5091653;28;20451;-75
2023/01/04 13:53:32;;;;;;;0.73;0.50;;;10.80;1.00;;;;;;5091521;28;20448;-74
2023/01/04 13:56:00;;;;;;;0.80;0.60;;;10.90;99.90;;;;;;5091760;28;20450;-74
2023/01/04 13:58:29;;;;;;;0.80;0.60;;;10.90;99.90;;;;;;5091045;28;20489;-73
2023/01/04 14:00:59;;;;;;;1.20;0.60;;;10.90;99.90;;;;;;5078085;28;20459;-77
2023/01/04 14:03:32;;;;;;;2.10;0.60;;;11.00;99.90;;;;;;5090777;28;20541;-74
2023/01/04 14:06:13;;;;;;;1.10;0.60;;;11.00;99.90;;;;;;5091591;28;20455;-75
2023/01/04 14:08:41;;;;;;;1.10;0.50;;;;;;;;;;5090942;28;20438;-74